sensor_id;sensor_type;location;lat;lon;timestamp;pressure;altitude;pressure_sealevel;temperature;humidity
17772;BME280;9010;32.624;-96.938;2022-10-19T00:01:13;99921.25;;;15.60;40.25
17772;BME280;9010;32.624;-96.938;2022-10-19T00:03:43;99929.41;;;15.57;42.27
17772;BME280;9010;32.624;-96.938;2022-10-19T00:06:17;99932.03;;;15.57;43.58
17772;BME280;9010;32.624;-96.938;2022-10-19T00:08:45;99931.50;;;15.52;42.39
17772;BME280;9010;32.624;-96.938;2022-10-19T00:11:14;99934.66;;;15.43;40.91
17772;BME280;9010;32.624;-96.938;2022-10-19T00:13:42;99937.69;;;15.37;46.52
17772;BME280;9010;32.624;-96.938;2022-10-19T00:16:11;99933.88;;;15.27;48.18
17772;BME280;9010;32.624;-96.938;2022-10-19T00:18:41;99945.44;;;15.26;51.40
17772;BME280;9010;32.624;-96.938;2022-10-19T00:21:12;99945.97;;;15.17;56.30
17772;BME280;9010;32.624;-96.938;2022-10-19T00:23:43;99949.16;;;15.08;58.44
17772;BME280;9010;32.624;-96.938;2022-10-19T00:26:12;99957.25;;;14.90;58.03
17772;BME280;9010;32.624;-96.938;2022-10-19T00:28:40;99970.03;;;14.84;56.74
17772;BME280;9010;32.624;-96.938;2022-10-19T00:31:10;99965.09;;;14.78;55.50
17772;BME280;9010;32.624;-96.938;2022-10-19T00:33:39;99974.00;;;14.61;55.78
17772;BME280;9010;32.624;-96.938;2022-10-19T00:36:15;99967.69;;;14.48;53.67
17772;BME280;9010;32.624;-96.938;2022-10-19T00:38:45;99978.59;;;14.42;55.52
17772;BME280;9010;32.624;-96.938;2022-10-19T00:41:14;99973.13;;;14.29;55.55
17772;BME280;9010;32.624;-96.938;2022-10-19T00:43:54;99989.72;;;14.33;58.24
17772;BME280;9010;32.624;-96.938;2022-10-19T00:46:23;99985.25;;;14.18;62.39
17772;BME280;9010;32.624;-96.938;2022-10-19T00:48:53;99983.03;;;14.10;59.45
17772;BME280;9010;32.624;-96.938;2022-10-19T00:51:23;99985.56;;;14.12;59.00
17772;BME280;9010;32.624;-96.938;2022-10-19T00:53:55;99989.84;;;13.99;61.69
17772;BME280;9010;32.624;-96.938;2022-10-19T00:56:23;99987.59;;;13.91;63.85
17772;BME280;9010;32.624;-96.938;2022-10-19T00:58:52;99990.66;;;13.83;64.63
17772;BME280;9010;32.624;-96.938;2022-10-19T01:01:21;99993.13;;;13.87;65.62
17772;BME280;9010;32.624;-96.938;2022-10-19T01:03:51;99995.19;;;13.81;65.14
17772;BME280;9010;32.624;-96.938;2022-10-19T01:06:20;100003.44;;;13.75;65.89
17772;BME280;9010;32.624;-96.938;2022-10-19T01:08:48;100003.34;;;13.77;64.61
17772;BME280;9010;32.624;-96.938;2022-10-19T01:11:27;100002.56;;;13.75;68.57
17772;BME280;9010;32.624;-96.938;2022-10-19T01:14:08;100007.16;;;13.71;72.47
17772;BME280;9010;32.624;-96.938;2022-10-19T01:16:46;100004.28;;;13.76;74.88
17772;BME280;9010;32.624;-96.938;2022-10-19T01:22:31;100009.38;;;13.63;71.81
17772;BME280;9010;32.624;-96.938;2022-10-19T01:25:19;100013.94;;;13.60;70.58
17772;BME280;9010;32.624;-96.938;2022-10-19T01:28:16;100027.09;;;13.61;69.79
17772;BME280;9010;32.624;-96.938;2022-10-19T01:30:49;100020.03;;;13.62;71.00
17772;BME280;9010;32.624;-96.938;2022-10-19T01:33:39;100018.91;;;13.66;69.55
17772;BME280;9010;32.624;-96.938;2022-10-19T01:36:20;100034.88;;;13.64;68.50
17772;BME280;9010;32.624;-96.938;2022-10-19T01:38:53;100038.59;;;13.60;69.14
17772;BME280;9010;32.624;-96.938;2022-10-19T01:41:29;100037.13;;;13.55;74.19
17772;BME280;9010;32.624;-96.938;2022-10-19T01:44:08;100035.25;;;13.57;72.74
17772;BME280;9010;32.624;-96.938;2022-10-19T01:46:43;100040.00;;;13.50;74.02
17772;BME280;9010;32.624;-96.938;2022-10-19T01:49:19;100033.56;;;13.56;72.34
17772;BME280;9010;32.624;-96.938;2022-10-19T01:51:53;100041.69;;;13.51;71.09
17772;BME280;9010;32.624;-96.938;2022-10-19T01:54:25;100040.22;;;13.46;72.48
17772;BME280;9010;32.624;-96.938;2022-10-19T01:56:58;100035.66;;;13.49;73.67
17772;BME280;9010;32.624;-96.938;2022-10-19T01:59:29;100033.78;;;13.51;67.49
17772;BME280;9010;32.624;-96.938;2022-10-19T02:02:02;100036.81;;;13.44;74.01
17772;BME280;9010;32.624;-96.938;2022-10-19T02:04:33;100040.16;;;13.47;77.36
17772;BME280;9010;32.624;-96.938;2022-10-19T02:07:03;100039.38;;;13.45;77.86
17772;BME280;9010;32.624;-96.938;2022-10-19T02:09:33;100045.59;;;13.44;67.56
17772;BME280;9010;32.624;-96.938;2022-10-19T02:12:04;100036.91;;;13.42;72.04
17772;BME280;9010;32.624;-96.938;2022-10-19T02:14:39;100044.19;;;13.37;67.55
17772;BME280;9010;32.624;-96.938;2022-10-19T02:17:13;100048.09;;;13.30;66.72
17772;BME280;9010;32.624;-96.938;2022-10-19T02:19:42;100045.16;;;13.19;68.04
17772;BME280;9010;32.624;-96.938;2022-10-19T02:22:11;100053.28;;;13.14;65.53
17772;BME280;9010;32.624;-96.938;2022-10-19T02:24:40;100049.47;;;13.20;68.72
17772;BME280;9010;32.624;-96.938;2022-10-19T02:27:08;100052.75;;;13.08;72.50
17772;BME280;9010;32.624;-96.938;2022-10-19T02:29:38;100052.88;;;13.05;69.75
17772;BME280;9010;32.624;-96.938;2022-10-19T02:32:06;100058.84;;;12.91;68.58
17772;BME280;9010;32.624;-96.938;2022-10-19T02:34:38;100068.06;;;12.83;68.24
17772;BME280;9010;32.624;-96.938;2022-10-19T02:37:06;100059.47;;;12.78;71.50
17772;BME280;9010;32.624;-96.938;2022-10-19T02:39:35;100060.72;;;12.71;69.46
17772;BME280;9010;32.624;-96.938;2022-10-19T02:42:08;100062.94;;;12.61;68.85
17772;BME280;9010;32.624;-96.938;2022-10-19T02:44:40;100064.31;;;12.51;69.60
17772;BME280;9010;32.624;-96.938;2022-10-19T02:47:13;100070.25;;;12.37;67.27
17772;BME280;9010;32.624;-96.938;2022-10-19T02:49:44;100070.06;;;12.40;66.62
17772;BME280;9010;32.624;-96.938;2022-10-19T02:52:14;100078.28;;;12.34;68.55
17772;BME280;9010;32.624;-96.938;2022-10-19T02:54:43;100076.78;;;12.29;70.86
17772;BME280;9010;32.624;-96.938;2022-10-19T02:57:15;100079.47;;;12.27;69.38
17772;BME280;9010;32.624;-96.938;2022-10-19T02:59:44;100090.16;;;12.24;68.98
17772;BME280;9010;32.624;-96.938;2022-10-19T03:02:12;100090.44;;;12.18;69.87
17772;BME280;9010;32.624;-96.938;2022-10-19T03:04:42;100085.75;;;12.06;71.63
17772;BME280;9010;32.624;-96.938;2022-10-19T03:07:14;100090.06;;;12.07;77.18
17772;BME280;9010;32.624;-96.938;2022-10-19T03:09:43;100094.69;;;12.02;80.13
17772;BME280;9010;32.624;-96.938;2022-10-19T03:12:12;100094.84;;;11.99;78.94
17772;BME280;9010;32.624;-96.938;2022-10-19T03:14:41;100104.72;;;11.94;79.34
17772;BME280;9010;32.624;-96.938;2022-10-19T03:17:09;100118.09;;;11.89;80.66
17772;BME280;9010;32.624;-96.938;2022-10-19T03:19:37;100106.78;;;11.87;81.47
17772;BME280;9010;32.624;-96.938;2022-10-19T03:22:07;100112.19;;;11.84;83.21
17772;BME280;9010;32.624;-96.938;2022-10-19T03:24:35;100115.88;;;11.80;81.83
17772;BME280;9010;32.624;-96.938;2022-10-19T03:27:04;100119.44;;;11.79;78.96
17772;BME280;9010;32.624;-96.938;2022-10-19T03:29:32;100130.72;;;11.83;77.73
17772;BME280;9010;32.624;-96.938;2022-10-19T03:32:00;100132.94;;;11.72;80.53
17772;BME280;9010;32.624;-96.938;2022-10-19T03:34:28;100133.31;;;11.63;84.10
17772;BME280;9010;32.624;-96.938;2022-10-19T03:36:57;100136.31;;;11.53;85.07
17772;BME280;9010;32.624;-96.938;2022-10-19T03:39:26;100137.63;;;11.43;86.47
17772;BME280;9010;32.624;-96.938;2022-10-19T03:41:55;100142.09;;;11.41;88.18
17772;BME280;9010;32.624;-96.938;2022-10-19T03:44:23;100139.69;;;11.35;91.46
17772;BME280;9010;32.624;-96.938;2022-10-19T03:46:51;100127.72;;;11.28;86.64
17772;BME280;9010;32.624;-96.938;2022-10-19T03:49:20;100145.59;;;11.42;89.57
17772;BME280;9010;32.624;-96.938;2022-10-19T03:51:48;100146.69;;;11.36;89.22
17772;BME280;9010;32.624;-96.938;2022-10-19T03:54:16;100151.97;;;11.36;87.36
17772;BME280;9010;32.624;-96.938;2022-10-19T03:56:46;100159.19;;;11.31;91.26
17772;BME280;9010;32.624;-96.938;2022-10-19T03:59:15;100158.66;;;11.23;91.93
17772;BME280;9010;32.624;-96.938;2022-10-19T04:01:44;100156.50;;;11.11;91.36
17772;BME280;9010;32.624;-96.938;2022-10-19T04:04:14;100160.44;;;11.01;89.88
17772;BME280;9010;32.624;-96.938;2022-10-19T04:06:44;100159.03;;;10.92;88.87
17772;BME280;9010;32.624;-96.938;2022-10-19T04:09:17;100162.72;;;10.87;85.22
17772;BME280;9010;32.624;-96.938;2022-10-19T04:11:48;100161.81;;;10.88;83.87
17772;BME280;9010;32.624;-96.938;2022-10-19T04:14:18;100176.50;;;10.72;84.26
17772;BME280;9010;32.624;-96.938;2022-10-19T04:16:46;100176.63;;;10.67;83.15
17772;BME280;9010;32.624;-96.938;2022-10-19T04:19:15;100177.72;;;10.62;83.69
17772;BME280;9010;32.624;-96.938;2022-10-19T04:21:46;100183.28;;;10.54;87.72
17772;BME280;9010;32.624;-96.938;2022-10-19T04:24:16;100182.53;;;10.51;86.73
17772;BME280;9010;32.624;-96.938;2022-10-19T04:26:48;100179.69;;;10.57;85.64
17772;BME280;9010;32.624;-96.938;2022-10-19T04:29:17;100182.38;;;10.55;83.51
17772;BME280;9010;32.624;-96.938;2022-10-19T04:31:48;100181.06;;;10.44;87.20
17772;BME280;9010;32.624;-96.938;2022-10-19T04:34:17;100188.72;;;10.50;85.39
17772;BME280;9010;32.624;-96.938;2022-10-19T04:36:45;100189.84;;;10.43;86.35
17772;BME280;9010;32.624;-96.938;2022-10-19T04:39:13;100177.91;;;10.34;84.49
17772;BME280;9010;32.624;-96.938;2022-10-19T04:41:42;100189.38;;;10.31;85.72
17772;BME280;9010;32.624;-96.938;2022-10-19T04:44:11;100197.25;;;10.33;86.57
17772;BME280;9010;32.624;-96.938;2022-10-19T04:46:40;100192.91;;;10.30;85.45
17772;BME280;9010;32.624;-96.938;2022-10-19T04:49:08;100200.13;;;10.25;83.48
17772;BME280;9010;32.624;-96.938;2022-10-19T04:51:37;100189.81;;;10.19;85.24
17772;BME280;9010;32.624;-96.938;2022-10-19T04:54:05;100194.34;;;10.16;88.34
17772;BME280;9010;32.624;-96.938;2022-10-19T04:56:33;100198.78;;;10.14;87.44
17772;BME280;9010;32.624;-96.938;2022-10-19T04:59:01;100197.09;;;10.11;91.02
17772;BME280;9010;32.624;-96.938;2022-10-19T05:01:31;100202.41;;;10.10;86.07
17772;BME280;9010;32.624;-96.938;2022-10-19T05:04:01;100201.56;;;10.09;84.33
17772;BME280;9010;32.624;-96.938;2022-10-19T05:06:30;100197.09;;;10.11;84.36
17772;BME280;9010;32.624;-96.938;2022-10-19T05:08:58;100199.03;;;10.06;87.85
17772;BME280;9010;32.624;-96.938;2022-10-19T05:11:27;100200.03;;;10.02;85.65
17772;BME280;9010;32.624;-96.938;2022-10-19T05:13:56;100197.50;;;9.99;87.17
17772;BME280;9010;32.624;-96.938;2022-10-19T05:16:24;100201.28;;;9.92;84.99
17772;BME280;9010;32.624;-96.938;2022-10-19T05:18:55;100197.00;;;9.90;81.63
17772;BME280;9010;32.624;-96.938;2022-10-19T05:21:25;100194.25;;;9.93;78.94
17772;BME280;9010;32.624;-96.938;2022-10-19T05:23:55;100192.69;;;9.87;76.44
17772;BME280;9010;32.624;-96.938;2022-10-19T05:26:25;100198.78;;;9.88;77.15
17772;BME280;9010;32.624;-96.938;2022-10-19T05:28:55;100182.13;;;9.89;73.34
17772;BME280;9010;32.624;-96.938;2022-10-19T05:31:25;100194.94;;;9.98;67.76
17772;BME280;9010;32.624;-96.938;2022-10-19T05:33:56;100202.56;;;10.05;66.86
17772;BME280;9010;32.624;-96.938;2022-10-19T05:36:26;100199.06;;;10.05;80.13
17772;BME280;9010;32.624;-96.938;2022-10-19T05:38:55;100200.88;;;10.04;79.92
17772;BME280;9010;32.624;-96.938;2022-10-19T05:41:24;100200.97;;;10.01;79.76
17772;BME280;9010;32.624;-96.938;2022-10-19T05:43:53;100199.44;;;9.94;74.70
17772;BME280;9010;32.624;-96.938;2022-10-19T05:46:22;100189.16;;;9.88;76.06
17772;BME280;9010;32.624;-96.938;2022-10-19T05:48:51;100189.22;;;9.87;77.85
17772;BME280;9010;32.624;-96.938;2022-10-19T05:51:21;100195.25;;;9.89;73.44
17772;BME280;9010;32.624;-96.938;2022-10-19T05:53:51;100190.91;;;9.88;74.78
17772;BME280;9010;32.624;-96.938;2022-10-19T05:56:20;100192.69;;;9.87;79.01
17772;BME280;9010;32.624;-96.938;2022-10-19T05:58:49;100198.84;;;9.86;78.66
17772;BME280;9010;32.624;-96.938;2022-10-19T06:01:17;100199.84;;;9.82;76.39
17772;BME280;9010;32.624;-96.938;2022-10-19T06:04:04;100192.59;;;9.90;78.33
17772;BME280;9010;32.624;-96.938;2022-10-19T06:06:34;100198.97;;;9.83;78.33
17772;BME280;9010;32.624;-96.938;2022-10-19T06:09:02;100196.44;;;9.80;83.10
17772;BME280;9010;32.624;-96.938;2022-10-19T06:11:32;100196.72;;;9.72;81.42
17772;BME280;9010;32.624;-96.938;2022-10-19T06:14:02;100205.94;;;9.58;83.32
17772;BME280;9010;32.624;-96.938;2022-10-19T06:16:31;100196.66;;;9.48;83.77
17772;BME280;9010;32.624;-96.938;2022-10-19T06:18:59;100204.78;;;9.40;84.45
17772;BME280;9010;32.624;-96.938;2022-10-19T06:21:29;100194.47;;;9.34;88.60
17772;BME280;9010;32.624;-96.938;2022-10-19T06:24:00;100205.13;;;9.30;84.96
17772;BME280;9010;32.624;-96.938;2022-10-19T06:26:30;100201.88;;;9.21;82.63
17772;BME280;9010;32.624;-96.938;2022-10-19T06:29:00;100207.34;;;9.14;82.16
17772;BME280;9010;32.624;-96.938;2022-10-19T06:31:29;100201.31;;;9.12;82.32
17772;BME280;9010;32.624;-96.938;2022-10-19T06:33:58;100197.28;;;9.00;81.49
17772;BME280;9010;32.624;-96.938;2022-10-19T06:36:29;100203.50;;;8.98;83.17
17772;BME280;9010;32.624;-96.938;2022-10-19T06:38:59;100205.44;;;8.91;77.00
17772;BME280;9010;32.624;-96.938;2022-10-19T06:41:30;100201.03;;;8.93;77.88
17772;BME280;9010;32.624;-96.938;2022-10-19T06:43:59;100204.63;;;8.89;80.27
17772;BME280;9010;32.624;-96.938;2022-10-19T06:46:27;100194.91;;;8.93;82.46
17772;BME280;9010;32.624;-96.938;2022-10-19T06:48:57;100206.13;;;8.98;85.53
17772;BME280;9010;32.624;-96.938;2022-10-19T06:51:26;100202.09;;;8.86;88.32
17772;BME280;9010;32.624;-96.938;2022-10-19T06:53:55;100194.41;;;8.80;87.12
17772;BME280;9010;32.624;-96.938;2022-10-19T06:56:25;100187.03;;;8.65;85.45
17772;BME280;9010;32.624;-96.938;2022-10-19T06:58:54;100190.78;;;8.56;83.57
17772;BME280;9010;32.624;-96.938;2022-10-19T07:01:22;100198.84;;;8.49;84.07
17772;BME280;9010;32.624;-96.938;2022-10-19T07:03:51;100196.50;;;8.40;83.08
17772;BME280;9010;32.624;-96.938;2022-10-19T07:06:20;100195.81;;;8.33;84.05
17772;BME280;9010;32.624;-96.938;2022-10-19T07:08:48;100197.69;;;8.27;83.43
17772;BME280;9010;32.624;-96.938;2022-10-19T07:11:18;100194.34;;;8.22;83.07
17772;BME280;9010;32.624;-96.938;2022-10-19T07:13:49;100198.81;;;8.18;84.37
17772;BME280;9010;32.624;-96.938;2022-10-19T07:16:18;100191.91;;;8.16;80.57
17772;BME280;9010;32.624;-96.938;2022-10-19T07:18:47;100194.59;;;8.13;83.82
17772;BME280;9010;32.624;-96.938;2022-10-19T07:21:16;100199.75;;;8.16;88.54
17772;BME280;9010;32.624;-96.938;2022-10-19T07:23:45;100204.19;;;8.14;90.09
17772;BME280;9010;32.624;-96.938;2022-10-19T07:26:15;100207.66;;;8.14;91.96
17772;BME280;9010;32.624;-96.938;2022-10-19T07:28:45;100212.16;;;8.09;94.79
17772;BME280;9010;32.624;-96.938;2022-10-19T07:31:18;100199.91;;;8.09;91.22
17772;BME280;9010;32.624;-96.938;2022-10-19T07:33:50;100212.91;;;8.14;93.28
17772;BME280;9010;32.624;-96.938;2022-10-19T07:36:18;100206.72;;;8.17;94.90
17772;BME280;9010;32.624;-96.938;2022-10-19T07:38:46;100215.47;;;8.16;92.63
17772;BME280;9010;32.624;-96.938;2022-10-19T07:41:15;100219.09;;;8.12;92.48
17772;BME280;9010;32.624;-96.938;2022-10-19T07:43:45;100213.94;;;8.08;90.90
17772;BME280;9010;32.624;-96.938;2022-10-19T07:46:17;100213.22;;;8.02;87.75
17772;BME280;9010;32.624;-96.938;2022-10-19T07:48:46;100219.59;;;7.92;81.32
17772;BME280;9010;32.624;-96.938;2022-10-19T07:51:16;100207.84;;;7.74;80.65
17772;BME280;9010;32.624;-96.938;2022-10-19T07:53:45;100221.81;;;7.75;80.46
17772;BME280;9010;32.624;-96.938;2022-10-19T07:56:14;100221.03;;;7.71;76.10
17772;BME280;9010;32.624;-96.938;2022-10-19T07:58:43;100226.34;;;7.67;80.56
17772;BME280;9010;32.624;-96.938;2022-10-19T08:01:12;100224.88;;;7.57;81.60
17772;BME280;9010;32.624;-96.938;2022-10-19T08:03:42;100224.97;;;7.52;83.11
17772;BME280;9010;32.624;-96.938;2022-10-19T08:06:13;100222.53;;;7.46;85.06
17772;BME280;9010;32.624;-96.938;2022-10-19T08:08:42;100221.59;;;7.47;87.92
17772;BME280;9010;32.624;-96.938;2022-10-19T08:11:13;100219.84;;;7.47;80.71
17772;BME280;9010;32.624;-96.938;2022-10-19T08:13:41;100219.72;;;7.53;76.51
17772;BME280;9010;32.624;-96.938;2022-10-19T08:16:20;100213.47;;;7.59;80.46
17772;BME280;9010;32.624;-96.938;2022-10-19T08:18:51;100211.19;;;7.45;88.30
17772;BME280;9010;32.624;-96.938;2022-10-19T08:21:19;100212.94;;;7.45;89.81
17772;BME280;9010;32.624;-96.938;2022-10-19T08:23:48;100212.13;;;7.43;89.32
17772;BME280;9010;32.624;-96.938;2022-10-19T08:26:16;100198.53;;;7.29;90.01
17772;BME280;9010;32.624;-96.938;2022-10-19T08:28:44;100214.25;;;7.27;87.42
17772;BME280;9010;32.624;-96.938;2022-10-19T08:31:14;100211.69;;;7.24;87.43
17772;BME280;9010;32.624;-96.938;2022-10-19T08:33:42;100210.28;;;7.11;86.99
17772;BME280;9010;32.624;-96.938;2022-10-19T08:36:13;100214.63;;;7.11;89.22
17772;BME280;9010;32.624;-96.938;2022-10-19T08:38:41;100197.50;;;6.98;88.62
17772;BME280;9010;32.624;-96.938;2022-10-19T08:41:21;100214.63;;;7.11;88.75
17772;BME280;9010;32.624;-96.938;2022-10-19T08:44:02;100210.28;;;7.10;88.50
17772;BME280;9010;32.624;-96.938;2022-10-19T08:46:38;100212.28;;;6.99;90.61
17772;BME280;9010;32.624;-96.938;2022-10-19T08:49:13;100209.81;;;6.92;89.90
17772;BME280;9010;32.624;-96.938;2022-10-19T08:51:48;100205.28;;;7.01;89.44
17772;BME280;9010;32.624;-96.938;2022-10-19T08:54:18;100196.56;;;7.00;89.86
17772;BME280;9010;32.624;-96.938;2022-10-19T08:56:50;100193.91;;;7.02;90.27
17772;BME280;9010;32.624;-96.938;2022-10-19T08:59:32;100201.00;;;6.97;89.69
17772;BME280;9010;32.624;-96.938;2022-10-19T09:02:11;100204.75;;;6.86;90.32
17772;BME280;9010;32.624;-96.938;2022-10-19T09:04:43;100195.91;;;6.90;91.79
17772;BME280;9010;32.624;-96.938;2022-10-19T09:07:25;100202.69;;;6.99;91.27
17772;BME280;9010;32.624;-96.938;2022-10-19T09:09:56;100199.16;;;7.02;93.74
17772;BME280;9010;32.624;-96.938;2022-10-19T09:12:39;100200.13;;;6.98;93.58
17772;BME280;9010;32.624;-96.938;2022-10-19T09:15:12;100199.50;;;6.86;95.25
17772;BME280;9010;32.624;-96.938;2022-10-19T09:17:42;100203.19;;;6.78;98.74
17772;BME280;9010;32.624;-96.938;2022-10-19T09:20:15;100204.25;;;6.69;97.84
17772;BME280;9010;32.624;-96.938;2022-10-19T09:22:51;100202.81;;;6.55;97.21
17772;BME280;9010;32.624;-96.938;2022-10-19T09:25:24;100196.75;;;6.53;95.37
17772;BME280;9010;32.624;-96.938;2022-10-19T09:28:02;100193.41;;;6.46;94.83
17772;BME280;9010;32.624;-96.938;2022-10-19T09:30:34;100188.31;;;6.40;95.98
17772;BME280;9010;32.624;-96.938;2022-10-19T09:33:06;100190.94;;;6.38;99.17
17772;BME280;9010;32.624;-96.938;2022-10-19T09:35:42;100181.69;;;6.24;100.00
17772;BME280;9010;32.624;-96.938;2022-10-19T09:38:14;100177.66;;;6.49;99.91
17772;BME280;9010;32.624;-96.938;2022-10-19T09:40:46;100171.59;;;6.47;97.63
17772;BME280;9010;32.624;-96.938;2022-10-19T09:43:14;100175.31;;;6.37;99.63
17772;BME280;9010;32.624;-96.938;2022-10-19T09:45:50;100172.88;;;6.28;98.94
17772;BME280;9010;32.624;-96.938;2022-10-19T09:48:27;100178.03;;;6.31;93.46
17772;BME280;9010;32.624;-96.938;2022-10-19T09:50:58;100171.81;;;6.36;86.92
17772;BME280;9010;32.624;-96.938;2022-10-19T09:53:29;100170.88;;;6.41;86.10
17772;BME280;9010;32.624;-96.938;2022-10-19T09:56:00;100164.75;;;6.42;75.44
17772;BME280;9010;32.624;-96.938;2022-10-19T09:58:30;100171.81;;;6.38;74.22
17772;BME280;9010;32.624;-96.938;2022-10-19T10:00:59;100164.97;;;6.31;82.72
17772;BME280;9010;32.624;-96.938;2022-10-19T10:03:29;100171.81;;;6.38;80.72
17772;BME280;9010;32.624;-96.938;2022-10-19T10:06:01;100169.97;;;6.42;79.37
17772;BME280;9010;32.624;-96.938;2022-10-19T10:08:34;100174.13;;;6.50;82.24
17772;BME280;9010;32.624;-96.938;2022-10-19T10:11:06;100163.63;;;6.55;76.97
17772;BME280;9010;32.624;-96.938;2022-10-19T10:13:37;100170.41;;;6.62;75.00
17772;BME280;9010;32.624;-96.938;2022-10-19T10:16:07;100165.84;;;6.71;73.55
17772;BME280;9010;32.624;-96.938;2022-10-19T10:18:43;100168.53;;;6.68;74.99
17772;BME280;9010;32.624;-96.938;2022-10-19T10:21:18;100173.81;;;6.67;77.00
17772;BME280;9010;32.624;-96.938;2022-10-19T10:24:00;100174.63;;;6.69;72.27
17772;BME280;9010;32.624;-96.938;2022-10-19T10:26:31;100177.19;;;6.72;71.92
17772;BME280;9010;32.624;-96.938;2022-10-19T10:29:16;100178.06;;;6.71;66.76
17772;BME280;9010;32.624;-96.938;2022-10-19T10:31:45;100175.44;;;6.72;75.20
17772;BME280;9010;32.624;-96.938;2022-10-19T10:34:18;100167.53;;;6.75;72.62
17772;BME280;9010;32.624;-96.938;2022-10-19T10:36:52;100170.84;;;6.82;76.57
17772;BME280;9010;32.624;-96.938;2022-10-19T10:39:23;100178.78;;;6.77;68.24
17772;BME280;9010;32.624;-96.938;2022-10-19T10:41:52;100181.41;;;6.77;71.33
17772;BME280;9010;32.624;-96.938;2022-10-19T10:44:23;100178.94;;;6.71;78.32
17772;BME280;9010;32.624;-96.938;2022-10-19T10:46:56;100178.84;;;6.74;72.27
17772;BME280;9010;32.624;-96.938;2022-10-19T10:49:27;100184.94;;;6.75;80.07
17772;BME280;9010;32.624;-96.938;2022-10-19T10:51:56;100191.31;;;6.63;80.82
17772;BME280;9010;32.624;-96.938;2022-10-19T10:54:29;100202.44;;;6.71;78.65
17772;BME280;9010;32.624;-96.938;2022-10-19T10:57:13;100198.22;;;6.64;85.53
17772;BME280;9010;32.624;-96.938;2022-10-19T10:59:51;100207.09;;;6.57;83.41
17772;BME280;9010;32.624;-96.938;2022-10-19T11:02:34;100208.75;;;6.61;79.21
17772;BME280;9010;32.624;-96.938;2022-10-19T11:05:10;100214.91;;;6.59;79.68
17772;BME280;9010;32.624;-96.938;2022-10-19T11:07:41;100214.84;;;6.62;80.14
17772;BME280;9010;32.624;-96.938;2022-10-19T11:10:21;100221.06;;;6.56;80.93
17772;BME280;9010;32.624;-96.938;2022-10-19T11:12:57;100215.94;;;6.50;80.25
17772;BME280;9010;32.624;-96.938;2022-10-19T11:15:29;100210.75;;;6.49;78.78
17772;BME280;9010;32.624;-96.938;2022-10-19T11:18:11;100219.66;;;6.40;81.57
17772;BME280;9010;32.624;-96.938;2022-10-19T11:20:45;100224.97;;;6.35;87.38
17772;BME280;9010;32.624;-96.938;2022-10-19T11:23:19;100223.25;;;6.33;84.68
17772;BME280;9010;32.624;-96.938;2022-10-19T11:26:01;100226.78;;;6.32;89.66
17772;BME280;9010;32.624;-96.938;2022-10-19T11:28:42;100232.22;;;6.20;87.54
17772;BME280;9010;32.624;-96.938;2022-10-19T11:31:17;100233.22;;;6.14;88.60
17772;BME280;9010;32.624;-96.938;2022-10-19T11:33:53;100244.56;;;6.12;88.04
17772;BME280;9010;32.624;-96.938;2022-10-19T11:36:41;100246.16;;;6.19;87.87
17772;BME280;9010;32.624;-96.938;2022-10-19T11:39:27;100238.38;;;6.17;87.32
17772;BME280;9010;32.624;-96.938;2022-10-19T11:42:07;100247.97;;;6.17;91.27
17772;BME280;9010;32.624;-96.938;2022-10-19T11:44:46;100245.44;;;6.12;91.63
17772;BME280;9010;32.624;-96.938;2022-10-19T11:47:27;100235.97;;;6.07;85.81
17772;BME280;9010;32.624;-96.938;2022-10-19T11:50:07;100251.69;;;6.04;85.60
17772;BME280;9010;32.624;-96.938;2022-10-19T11:52:42;100252.47;;;6.09;85.13
17772;BME280;9010;32.624;-96.938;2022-10-19T11:55:18;100253.28;;;6.11;83.10
17772;BME280;9010;32.624;-96.938;2022-10-19T11:57:54;100253.28;;;6.11;82.62
17772;BME280;9010;32.624;-96.938;2022-10-19T12:00:28;100258.56;;;6.08;91.45
17772;BME280;9010;32.624;-96.938;2022-10-19T12:03:21;100251.75;;;6.01;88.19
17772;BME280;9010;32.624;-96.938;2022-10-19T12:06:02;100260.50;;;5.98;88.27
17772;BME280;9010;32.624;-96.938;2022-10-19T12:08:44;100267.56;;;5.92;82.85
17772;BME280;9010;32.624;-96.938;2022-10-19T12:11:26;100262.59;;;5.73;95.02
17772;BME280;9010;32.624;-96.938;2022-10-19T12:14:01;100271.53;;;5.60;94.91
17772;BME280;9010;32.624;-96.938;2022-10-19T12:16:34;100267.31;;;5.53;91.91
17772;BME280;9010;32.624;-96.938;2022-10-19T12:19:06;100273.41;;;5.52;96.85
17772;BME280;9010;32.624;-96.938;2022-10-19T12:21:40;100274.50;;;5.38;98.51
17772;BME280;9010;32.624;-96.938;2022-10-19T12:24:14;100275.31;;;5.41;97.17
17772;BME280;9010;32.624;-96.938;2022-10-19T12:26:44;100277.09;;;5.39;96.70
17772;BME280;9010;32.624;-96.938;2022-10-19T12:29:18;100278.78;;;5.42;96.92
17772;BME280;9010;32.624;-96.938;2022-10-19T12:31:47;100268.38;;;5.40;96.24
17772;BME280;9010;32.624;-96.938;2022-10-19T12:34:25;100279.72;;;5.38;96.58
17772;BME280;9010;32.624;-96.938;2022-10-19T12:37:01;100272.13;;;5.21;99.19
17772;BME280;9010;32.624;-96.938;2022-10-19T12:39:40;100274.88;;;5.12;98.34
17772;BME280;9010;32.624;-96.938;2022-10-19T12:42:16;100285.44;;;5.00;100.00
17772;BME280;9010;32.624;-96.938;2022-10-19T12:45:15;100284.69;;;4.92;100.00
17772;BME280;9010;32.624;-96.938;2022-10-19T12:51:07;100286.38;;;4.94;100.00
17772;BME280;9010;32.624;-96.938;2022-10-19T12:53:40;100291.53;;;5.02;100.00
17772;BME280;9010;32.624;-96.938;2022-10-19T12:56:14;100294.88;;;5.10;100.00
17772;BME280;9010;32.624;-96.938;2022-10-19T12:58:55;100301.69;;;5.21;100.00
17772;BME280;9010;32.624;-96.938;2022-10-19T13:01:38;100305.03;;;5.28;100.00
17772;BME280;9010;32.624;-96.938;2022-10-19T13:04:11;100298.91;;;5.32;100.00
17772;BME280;9010;32.624;-96.938;2022-10-19T13:06:41;100304.88;;;5.40;100.00
17772;BME280;9010;32.624;-96.938;2022-10-19T13:09:22;100313.53;;;5.44;100.00
17772;BME280;9010;32.624;-96.938;2022-10-19T13:12:28;100315.22;;;5.46;100.00
17772;BME280;9010;32.624;-96.938;2022-10-19T13:19:00;100314.00;;;5.70;100.00
17772;BME280;9010;32.624;-96.938;2022-10-19T13:21:46;100312.81;;;5.91;100.00